Time;durP1;ratioP1;P1;durP2;ratioP2;P2;SDS_P1;SDS_P2;PMS_P1;PMS_P2;Temp;Humidity;BMP_temperature;BMP_pressure;BME280_temperature;BME280_humidity;BME280_pressure;Samples;Min_cycle;Max_cycle;Signal;HPM_P1;HPM_P2
2021/07/28 00:00:28;;;;;;;9.40;7.30;;;;;;;22.28;57.53;99801.33;126658;1089;102911;-79
2021/07/28 00:03:18;;;;;;;7.73;6.73;;;;;;;22.24;57.34;99791.92;126542;1089;113017;-79
2021/07/28 00:06:06;;;;;;;8.70;7.37;;;;;;;22.21;57.72;99792.19;126606;1090;102863;-79
2021/07/28 00:08:55;;;;;;;9.00;7.53;;;;;;;22.14;57.96;99793.72;126716;1090;102874;-79
2021/07/28 00:11:43;;;;;;;7.83;7.03;;;;;;;22.06;57.45;99782.91;126687;1090;102852;-79
2021/07/28 00:14:31;;;;;;;8.25;7.40;;;;;;;22.02;57.71;99784.96;126683;1089;103014;-79
2021/07/28 00:17:19;;;;;;;9.57;7.20;;;;;;;21.99;58.10;99789.70;126497;1090;113941;-79
2021/07/28 00:20:21;;;;;;;10.00;7.90;;;;;;;21.99;57.79;99779.08;126727;1088;102888;-79
2021/07/28 00:23:14;;;;;;;8.93;7.73;;;;;;;22.00;58.04;99791.38;126579;1089;114723;-79
2021/07/28 00:26:12;;;;;;;7.97;7.07;;;;;;;21.98;57.79;99793.33;126707;1089;100642;-79
2021/07/28 00:29:00;;;;;;;8.00;7.10;;;;;;;21.93;58.38;99787.59;126760;1090;114087;-79
2021/07/28 00:31:48;;;;;;;10.77;7.60;;;;;;;21.86;58.50;99786.42;126658;1090;103373;-79
2021/07/28 00:34:36;;;;;;;8.33;7.30;;;;;;;21.76;58.83;99786.39;126663;1090;113393;-79
2021/07/28 00:37:24;;;;;;;8.47;6.97;;;;;;;21.70;58.26;99790.39;126832;1090;102852;-79
2021/07/28 00:40:14;;;;;;;8.87;6.87;;;;;;;21.69;58.88;99782.56;126711;1088;113952;-79
2021/07/28 00:43:13;;;;;;;8.20;7.00;;;;;;;21.66;58.51;99778.36;126631;1090;102946;-79
2021/07/28 00:46:02;;;;;;;8.80;7.27;;;;;;;21.70;58.40;99774.46;126591;1089;113056;-79
2021/07/28 00:48:50;;;;;;;9.83;6.97;;;;;;;21.72;58.25;99776.98;126819;1090;103138;-80
2021/07/28 00:51:39;;;;;;;8.33;7.53;;;;;;;21.69;58.66;99771.94;126655;1090;114316;-79
2021/07/28 00:54:27;;;;;;;8.43;7.53;;;;;;;21.65;58.38;99776.67;126826;1088;102868;-79
2021/07/28 00:57:15;;;;;;;8.27;6.77;;;;;;;21.60;58.78;99783.36;126682;1090;102895;-79
2021/07/28 01:00:03;;;;;;;9.03;6.80;;;;;;;21.54;58.66;99783.86;126543;1090;112750;-79
2021/07/28 01:02:52;;;;;;;9.30;6.90;;;;;;;21.51;58.51;99779.66;126680;1089;102985;-79
2021/07/28 01:05:40;;;;;;;7.17;6.40;;;;;;;21.53;59.00;99788.33;126581;1090;114134;-79
2021/07/28 01:08:29;;;;;;;8.57;6.43;;;;;;;21.53;58.55;99788.33;126816;1090;103126;-79
2021/07/28 01:11:23;;;;;;;9.97;7.10;;;;;;;21.52;58.76;99797.26;126583;1090;114173;-79
2021/07/28 01:14:11;;;;;;;8.37;7.40;;;;;;;21.47;58.72;99788.86;126641;1089;103007;-79
2021/07/28 01:16:59;;;;;;;7.57;6.80;;;;;;;21.43;59.12;99792.75;126565;1090;112872;-79
2021/07/28 01:19:52;;;;;;;9.13;7.53;;;;;;;21.40;59.03;99793.84;126715;1090;102865;-79
2021/07/28 01:22:40;;;;;;;8.80;7.03;;;;;;;21.39;59.20;99791.33;126618;1090;114140;-79
2021/07/28 01:25:31;;;;;;;8.17;6.93;;;;;;;21.35;59.41;99796.03;126669;1090;102849;-79
2021/07/28 01:28:21;;;;;;;7.73;6.43;;;;;;;21.35;58.92;99797.84;126550;1088;113096;-79
2021/07/28 01:31:14;;;;;;;7.70;6.90;;;;;;;21.34;59.54;99798.81;126672;1090;102682;-79
2021/07/28 01:34:02;;;;;;;8.67;7.00;;;;;;;21.31;59.40;99807.88;126650;1090;113060;-79
2021/07/28 01:36:55;;;;;;;8.73;7.30;;;;;;;21.29;59.71;99807.16;126683;1088;102846;-79
2021/07/28 01:39:43;;;;;;;8.57;7.67;;;;;;;21.22;59.95;99808.63;126602;1089;114111;-79
2021/07/28 01:42:31;;;;;;;10.03;7.80;;;;;;;21.15;60.35;99806.59;126696;1089;102954;-79
2021/07/28 01:45:18;;;;;;;10.30;7.77;;;;;;;21.06;59.95;99803.74;126631;1090;102895;-79
2021/07/28 01:48:10;;;;;;;8.70;7.50;;;;;;;21.02;60.47;99798.83;126558;1090;113991;-80
2021/07/28 01:50:58;;;;;;;9.53;8.00;;;;;;;20.97;60.95;99804.48;126750;1090;102869;-78
2021/07/28 01:53:47;;;;;;;8.33;7.27;;;;;;;20.95;61.05;99801.13;126561;1090;112862;-79
2021/07/28 01:56:42;;;;;;;9.50;7.73;;;;;;;20.91;60.74;99807.65;126599;1088;101366;-78
2021/07/28 01:59:38;;;;;;;9.87;8.00;;;;;;;20.86;61.15;99804.55;126615;1090;113912;-79
2021/07/28 02:02:34;;;;;;;10.03;7.70;;;;;;;20.80;60.77;99807.67;126675;1090;103067;-78
2021/07/28 02:05:23;;;;;;;9.30;7.90;;;;;;;20.76;61.41;99807.09;126538;1090;114133;-78
2021/07/28 02:08:12;;;;;;;8.87;7.60;;;;;;;20.74;61.28;99800.23;126801;1090;102920;-79
2021/07/28 02:11:00;;;;;;;9.97;8.00;;;;;;;20.72;61.35;99791.56;126496;1090;114077;-79
2021/07/28 02:13:49;;;;;;;9.83;7.60;;;;;;;20.74;61.65;99800.23;126665;1090;102959;-79
2021/07/28 02:16:36;;;;;;;8.33;7.53;;;;;;;20.72;61.21;99794.22;126554;1089;113910;-79
2021/07/28 02:19:24;;;;;;;8.90;7.63;;;;;;;20.73;61.25;99803.85;126693;1090;103064;-79
2021/07/28 02:22:13;;;;;;;10.97;7.67;;;;;;;20.73;61.09;99796.73;126569;1090;114384;-79
2021/07/28 02:25:01;;;;;;;8.30;7.23;;;;;;;20.75;60.99;99792.16;126650;1090;103057;-79
2021/07/28 02:27:49;;;;;;;8.87;7.33;;;;;;;20.79;61.58;99784.79;126535;1090;114276;-78
2021/07/28 02:30:37;;;;;;;8.37;7.27;;;;;;;20.84;60.84;99787.92;126669;1089;102850;-78
2021/07/28 02:33:28;;;;;;;8.70;7.70;;;;;;;20.90;61.40;99783.92;126694;1089;102956;-78
2021/07/28 02:36:15;;;;;;;8.53;7.57;;;;;;;20.88;61.06;99792.00;126452;1089;113941;-78
2021/07/28 02:39:04;;;;;;;9.10;7.73;;;;;;;20.85;61.28;99789.61;126625;1090;103012;-78
2021/07/28 02:41:52;;;;;;;9.63;8.43;;;;;;;20.81;60.93;99781.05;126692;1090;112853;-78
2021/07/28 02:44:40;;;;;;;8.50;7.13;;;;;;;20.79;61.05;99782.14;126722;1089;102961;-78
2021/07/28 02:47:28;;;;;;;8.73;7.83;;;;;;;20.78;61.68;99785.76;126527;1090;114319;-78
2021/07/28 02:50:17;;;;;;;8.97;8.07;;;;;;;20.79;61.18;99782.98;126705;1089;102940;-78
2021/07/28 02:53:04;;;;;;;;;;;;;;;20.80;61.32;99792.61;126568;1090;112672;-78
2021/07/28 02:55:53;;;;;;;;;;;;;;;20.77;61.21;99794.67;126856;1090;102911;-78
2021/07/28 02:58:41;;;;;;;11.40;7.95;;;;;;;20.75;61.56;99788.66;126578;1090;102715;-78
2021/07/28 03:01:29;;;;;;;11.50;8.13;;;;;;;20.71;61.89;99787.23;126841;1089;102937;-78
2021/07/28 03:04:17;;;;;;;9.17;8.07;;;;;;;20.69;61.50;99786.52;126565;1090;114275;-78
2021/07/28 03:07:06;;;;;;;10.80;8.80;;;;;;;20.68;61.92;99785.68;126634;1090;102866;-78
2021/07/28 03:09:53;;;;;;;10.87;8.20;;;;;;;20.70;61.76;99788.20;126719;1090;102934;-78
2021/07/28 03:12:41;;;;;;;9.50;7.87;;;;;;;20.74;61.71;99784.33;126714;1089;102890;-78
2021/07/28 03:15:29;;;;;;;9.13;8.23;;;;;;;20.76;61.51;99782.39;126684;1090;102958;-78
2021/07/28 03:18:17;;;;;;;9.60;8.60;;;;;;;20.83;61.35;99796.84;126557;1090;114207;-78
2021/07/28 03:21:05;;;;;;;8.97;7.90;;;;;;;20.87;61.88;99795.63;126641;1089;102908;-78
2021/07/28 03:23:53;;;;;;;9.50;8.50;;;;;;;20.87;61.94;99800.92;126752;1090;113907;-78
2021/07/28 03:26:41;;;;;;;12.00;8.60;;;;;;;20.86;61.80;99796.59;126718;1090;102948;-78
2021/07/28 03:29:29;;;;;;;11.60;8.47;;;;;;;20.80;61.78;99805.86;126572;1090;114574;-78
2021/07/28 03:32:16;;;;;;;10.00;8.13;;;;;;;20.77;61.90;99800.82;126689;1090;102678;-78
2021/07/28 03:35:04;;;;;;;11.07;7.80;;;;;;;20.76;62.15;99798.30;126479;1090;114583;-78
2021/07/28 03:37:52;;;;;;;11.77;7.80;;;;;;;20.77;61.67;99802.63;126627;1090;102852;-78
2021/07/28 03:40:41;;;;;;;8.77;7.87;;;;;;;20.79;61.72;99798.04;126738;1089;114281;-78
2021/07/28 03:43:28;;;;;;;9.93;8.23;;;;;;;20.83;61.76;99804.80;126648;1090;102866;-78
2021/07/28 03:46:16;;;;;;;10.13;8.37;;;;;;;20.83;61.80;99799.50;126595;1088;103030;-78
2021/07/28 03:49:04;;;;;;;11.20;8.97;;;;;;;20.85;61.86;99802.02;126509;1090;113922;-78
2021/07/28 03:51:52;;;;;;;10.03;8.57;;;;;;;20.84;62.23;99795.88;126796;1089;102969;-78
2021/07/28 03:54:40;;;;;;;12.97;8.40;;;;;;;20.79;62.17;99800.69;126680;1089;114279;-78
2021/07/28 03:57:28;;;;;;;10.37;8.43;;;;;;;20.75;62.24;99796.61;126667;1089;100831;-79
2021/07/28 04:00:18;;;;;;;10.03;8.97;;;;;;;20.72;62.83;99803.01;126606;1090;114155;-80
2021/07/28 04:03:06;;;;;;;10.03;8.83;;;;;;;20.74;62.50;99805.53;126814;1089;102982;-79
2021/07/28 04:05:56;;;;;;;9.83;8.43;;;;;;;20.76;62.49;99803.59;126707;1090;113077;-79
2021/07/28 04:08:44;;;;;;;10.93;8.60;;;;;;;20.74;62.41;99800.23;126659;1089;102904;-79
2021/07/28 04:11:31;;;;;;;10.65;7.55;;;;;;;20.73;62.49;99799.39;126521;1090;114128;-78
2021/07/28 04:14:19;;;;;;;10.27;7.83;;;;;;;20.79;62.50;99792.74;126695;1089;102966;-78
2021/07/28 04:17:08;;;;;;;10.57;8.63;;;;;;;20.90;62.87;99799.83;126479;1090;114435;-78
2021/07/28 04:19:56;;;;;;;11.07;8.80;;;;;;;20.97;62.51;99800.99;126696;1090;102884;-78
2021/07/28 04:22:44;;;;;;;10.63;8.33;;;;;;;21.05;62.72;99802.06;126729;1090;114864;-78
2021/07/28 04:25:32;;;;;;;12.53;9.20;;;;;;;21.17;62.23;99797.53;126847;1089;102955;-78
2021/07/28 04:28:20;;;;;;;10.63;7.97;;;;;;;21.28;62.00;99799.33;126629;1090;101127;-78
2021/07/28 04:31:09;;;;;;;9.57;7.70;;;;;;;21.37;62.36;99799.42;126624;1089;113897;-78
2021/07/28 04:33:56;;;;;;;10.60;8.60;;;;;;;21.49;61.84;99794.88;126657;1090;102875;-78
2021/07/28 04:36:45;;;;;;;12.43;8.57;;;;;;;21.63;61.71;99799.86;126527;1088;114794;-78
2021/07/28 04:39:34;;;;;;;10.77;8.60;;;;;;;21.77;61.82;99797.84;126676;1090;102927;-78
2021/07/28 04:42:22;;;;;;;10.00;8.30;;;;;;;21.89;61.30;99796.77;126575;1088;114352;-78
2021/07/28 04:45:10;;;;;;;12.43;8.17;;;;;;;21.99;61.42;99800.33;126598;1090;102899;-78
2021/07/28 04:47:58;;;;;;;8.97;7.60;;;;;;;22.11;61.28;99798.46;126681;1090;113033;-78
2021/07/28 04:50:46;;;;;;;12.00;7.77;;;;;;;22.24;61.08;99793.73;126762;1088;102856;-79
2021/07/28 04:53:35;;;;;;;10.07;7.67;;;;;;;22.43;61.12;99799.11;126597;1088;114280;-78
2021/07/28 04:56:22;;;;;;;13.07;8.20;;;;;;;22.61;60.99;99791.31;126589;1090;102915;-79
2021/07/28 04:59:11;;;;;;;10.40;7.73;;;;;;;22.81;60.44;99790.39;126523;1089;114276;-78
2021/07/28 05:01:59;;;;;;;14.80;7.87;;;;;;;23.02;59.98;99792.12;126645;1090;102830;-79
2021/07/28 05:04:47;;;;;;;15.10;8.25;;;;;;;23.21;59.10;99794.77;126551;1090;113189;-78
2021/07/28 05:07:35;;;;;;;9.53;7.60;;;;;;;23.41;59.00;99792.92;126766;1090;103307;-78
2021/07/28 05:10:25;;;;;;;11.67;7.40;;;;;;;23.55;59.18;99786.33;126631;1090;103012;-78
2021/07/28 05:13:13;;;;;;;9.67;7.00;;;;;;;23.86;58.56;99784.29;126643;1090;114139;-78
2021/07/28 05:16:00;;;;;;;8.93;6.57;;;;;;;24.15;58.43;99785.03;126617;1090;102860;-79
2021/07/28 05:18:48;;;;;;;10.23;7.23;;;;;;;24.47;57.96;99776.63;126530;1090;114118;-78
2021/07/28 05:21:36;;;;;;;8.30;6.23;;;;;;;24.81;56.98;99778.65;126691;1090;101341;-79
2021/07/28 05:24:24;;;;;;;12.60;6.80;;;;;;;25.30;56.74;99777.26;126618;1090;113015;-79
2021/07/28 05:27:13;;;;;;;13.73;7.10;;;;;;;26.08;56.55;99772.79;126550;1090;102870;-78
2021/07/28 05:30:01;;;;;;;9.70;6.15;;;;;;;27.67;54.51;99772.59;126556;1090;114393;-78
2021/07/28 05:32:49;;;;;;;8.80;6.20;;;;;;;29.69;51.80;99751.93;126771;1089;102993;-78
2021/07/28 05:35:37;;;;;;;11.00;5.90;;;;;;;31.77;48.42;99754.61;126539;1090;113982;-78
2021/07/28 05:38:24;;;;;;;10.60;5.47;;;;;;;33.58;45.94;99756.59;126688;1089;102988;-78
2021/07/28 05:41:12;;;;;;;11.37;5.43;;;;;;;34.96;42.73;99750.86;126523;1090;114287;-77
2021/07/28 05:44:07;;;;;;;16.95;10.40;;;;;;;36.19;41.15;99749.06;126575;1090;102988;-78
2021/07/28 05:46:55;;;;;;;18.73;6.43;;;;;;;37.24;38.41;99742.36;126515;1089;114461;-79
2021/07/28 05:49:43;;;;;;;13.30;5.90;;;;;;;38.08;36.60;99747.32;126605;1090;102866;-79
2021/07/28 05:52:31;;;;;;;13.10;5.23;;;;;;;38.79;34.61;99753.37;126612;1089;102879;-79
2021/07/28 05:55:19;;;;;;;15.47;6.37;;;;;;;39.31;34.08;99761.33;126560;1089;114095;-79
2021/07/28 05:58:06;;;;;;;15.33;5.67;;;;;;;40.09;32.27;99762.23;126582;1088;103313;-79
2021/07/28 06:00:54;;;;;;;23.73;6.07;;;;;;;40.74;31.28;99750.38;126533;1089;114214;-79
2021/07/28 06:03:41;;;;;;;8.57;4.47;;;;;;;41.44;30.01;99751.28;126580;1090;102948;-79
2021/07/28 06:06:29;;;;;;;10.00;4.80;;;;;;;42.28;28.82;99750.38;126611;1089;114197;-79
2021/07/28 06:09:17;;;;;;;8.20;4.05;;;;;;;42.73;27.47;99746.92;126641;1089;102833;-79
2021/07/28 06:12:05;;;;;;;3.80;3.43;;;;;;;42.77;26.53;99753.53;126478;1089;113941;-79
2021/07/28 06:14:53;;;;;;;5.53;3.53;;;;;;;43.03;26.30;99752.45;126607;1089;102937;-79
2021/07/28 06:17:41;;;;;;;12.13;3.70;;;;;;;43.62;25.88;99765.57;126474;1090;114070;-78
2021/07/28 06:20:29;;;;;;;6.00;3.70;;;;;;;44.24;25.14;99758.00;126626;1089;102847;-78
2021/07/28 06:23:16;;;;;;;5.97;4.10;;;;;;;44.54;24.33;99748.78;126495;1090;114327;-78
2021/07/28 06:26:04;;;;;;;7.90;4.60;;;;;;;44.57;23.29;99743.53;126652;1089;102965;-79
2021/07/28 06:28:51;;;;;;;4.13;3.20;;;;;;;44.50;22.81;99747.69;126655;1089;102957;-79
2021/07/28 06:31:39;;;;;;;18.60;4.60;;;;;;;44.18;23.00;99757.21;126666;1090;102949;-79
2021/07/28 06:34:27;;;;;;;12.90;4.10;;;;;;;43.68;22.73;99758.16;126635;1090;102873;-80
2021/07/28 06:37:16;;;;;;;6.40;3.53;;;;;;;42.65;22.66;99752.95;126661;1090;114096;-79
2021/07/28 06:40:05;;;;;;;5.40;3.43;;;;;;;41.52;22.95;99753.53;126597;1090;102954;-79
2021/07/28 06:42:54;;;;;;;7.20;4.03;;;;;;;40.47;23.60;99755.86;126480;1088;114059;-79
2021/07/28 06:45:42;;;;;;;9.53;3.90;;;;;;;39.36;24.90;99758.70;126650;1089;102930;-79
2021/07/28 06:48:30;;;;;;;7.87;3.90;;;;;;;38.27;25.73;99755.34;126601;1090;113965;-79
2021/07/28 06:51:17;;;;;;;9.80;4.40;;;;;;;37.30;26.91;99760.48;126601;1089;103521;-79
2021/07/28 06:54:05;;;;;;;11.70;4.57;;;;;;;36.30;27.85;99759.17;126570;1089;114305;-79
2021/07/28 06:56:53;;;;;;;9.60;4.80;;;;;;;35.49;28.85;99761.29;126706;1090;102890;-79
2021/07/28 06:59:40;;;;;;;13.97;4.67;;;;;;;34.74;29.15;99762.02;126485;1090;113038;-79
2021/07/28 07:02:29;;;;;;;15.47;5.23;;;;;;;34.14;30.22;99764.17;126689;1088;102883;-79
2021/07/28 07:05:17;;;;;;;13.57;5.00;;;;;;;33.74;31.24;99759.88;126572;1089;102695;-79
2021/07/28 07:08:06;;;;;;;9.90;4.30;;;;;;;33.29;31.67;99754.30;126627;1090;102891;-78
2021/07/28 07:10:54;;;;;;;8.00;3.80;;;;;;;32.84;31.84;99748.64;126602;1090;103498;-78
2021/07/28 07:13:42;;;;;;;8.17;4.30;;;;;;;32.52;31.98;99749.39;126725;1089;113890;-78
2021/07/28 07:16:30;;;;;;;8.10;4.30;;;;;;;32.22;32.42;99744.27;126552;1090;103036;-78
2021/07/28 07:19:19;;;;;;;9.43;5.10;;;;;;;31.86;32.63;99756.13;126677;1090;114142;-79
2021/07/28 07:22:07;;;;;;;6.20;3.47;;;;;;;31.57;33.32;99750.92;126628;1088;102852;-79
2021/07/28 07:24:55;;;;;;;11.10;4.07;;;;;;;31.28;33.89;99757.36;126534;1089;114187;-79
2021/07/28 07:27:45;;;;;;;6.83;4.00;;;;;;;31.02;34.29;99757.92;126802;1089;102846;-78
2021/07/28 07:30:34;;;;;;;5.13;3.53;;;;;;;30.78;34.65;99750.23;126579;1089;114290;-78
2021/07/28 07:33:41;;;;;;;6.57;3.83;;;;;;;30.58;34.97;99756.21;126542;1090;103361;-78
2021/07/28 07:36:29;;;;;;;4.23;3.53;;;;;;;30.36;35.77;99746.44;126448;1089;114213;-79
2021/07/28 07:39:18;;;;;;;7.03;4.13;;;;;;;30.13;36.14;99745.72;126683;1090;102914;-79
2021/07/28 07:42:06;;;;;;;8.70;4.20;;;;;;;29.87;36.51;99741.64;126609;1090;114283;-79
2021/07/28 07:44:58;;;;;;;5.37;3.60;;;;;;;29.72;36.75;99741.64;126633;1090;102891;-79
2021/07/28 07:47:46;;;;;;;8.03;4.10;;;;;;;29.56;37.56;99732.91;126832;1090;102997;-79
2021/07/28 07:50:38;;;;;;;7.43;4.07;;;;;;;29.34;37.95;99734.63;126857;1089;102877;-79
2021/07/28 07:53:29;;;;;;;8.47;4.60;;;;;;;29.13;38.18;99729.95;126667;1089;102881;-79
2021/07/28 07:56:16;;;;;;;8.10;4.77;;;;;;;28.98;38.53;99732.59;126507;1090;113906;-79
2021/07/28 07:59:04;;;;;;;6.27;4.10;;;;;;;28.82;39.25;99725.45;126837;1090;102973;-79
2021/07/28 08:01:52;;;;;;;12.53;5.07;;;;;;;28.72;39.92;99734.75;126740;1090;113922;-79
2021/07/28 08:04:41;;;;;;;12.53;5.10;;;;;;;28.61;39.82;99727.13;126674;1089;102862;-79
2021/07/28 08:07:29;;;;;;;14.93;5.53;;;;;;;28.51;40.21;99727.34;126618;1089;113337;-79
2021/07/28 08:10:18;;;;;;;13.43;5.80;;;;;;;28.40;40.92;99725.92;126654;1088;102961;-78
2021/07/28 08:13:08;;;;;;;13.23;5.20;;;;;;;28.34;41.40;99725.77;126613;1089;114259;-78
2021/07/28 08:15:56;;;;;;;7.50;5.40;;;;;;;28.25;41.40;99733.00;126710;1088;102999;-79
2021/07/28 08:18:45;;;;;;;10.93;5.07;;;;;;;28.15;42.01;99725.16;126543;1090;114296;-78
2021/07/28 08:21:34;;;;;;;8.63;4.93;;;;;;;28.15;42.00;99727.84;126651;1090;102657;-79
2021/07/28 08:24:22;;;;;;;7.70;5.53;;;;;;;28.14;42.31;99726.17;126672;1090;114378;-79
2021/07/28 08:27:09;;;;;;;9.50;5.13;;;;;;;28.16;41.88;99726.00;126637;1090;102871;-78
2021/07/28 08:29:57;;;;;;;7.57;5.53;;;;;;;28.17;42.01;99728.50;126679;1089;103007;-78
2021/07/28 08:32:46;;;;;;;8.00;5.47;;;;;;;28.28;42.41;99728.16;126560;1090;113786;-79
2021/07/28 08:35:34;;;;;;;9.00;5.60;;;;;;;28.49;41.99;99729.38;126633;1089;102970;-79
2021/07/28 08:38:26;;;;;;;10.30;5.67;;;;;;;28.70;42.16;99731.41;126575;1090;113941;-79
2021/07/28 08:41:18;;;;;;;10.03;5.70;;;;;;;28.88;41.89;99732.81;126601;1090;103478;-79
2021/07/28 08:44:06;;;;;;;8.90;5.70;;;;;;;29.14;42.31;99734.30;126520;1090;113030;-79
2021/07/28 08:46:55;;;;;;;6.40;5.43;;;;;;;29.36;41.21;99727.20;126627;1088;102673;-79
2021/07/28 08:49:43;;;;;;;7.40;5.03;;;;;;;29.59;40.65;99721.80;126518;1090;114066;-79
2021/07/28 08:52:34;;;;;;;8.70;5.30;;;;;;;30.16;40.57;99721.13;126642;1089;101898;-79
2021/07/28 08:55:22;;;;;;;11.43;5.70;;;;;;;31.27;39.04;99723.37;126462;1089;113388;-77
2021/07/28 08:58:14;;;;;;;6.47;4.73;;;;;;;32.19;37.81;99716.86;126550;1090;102950;-79
2021/07/28 09:01:02;;;;;;;5.20;4.70;;;;;;;33.37;36.49;99712.72;126519;1090;114292;-78
2021/07/28 09:03:51;;;;;;;7.70;5.13;;;;;;;34.33;34.59;99716.41;126533;1089;102874;-78
2021/07/28 09:06:41;;;;;;;7.80;4.63;;;;;;;35.23;34.45;99708.95;126491;1090;113227;-78
2021/07/28 09:09:30;;;;;;;8.70;4.90;;;;;;;35.62;32.71;99701.50;126575;1088;103305;-78
2021/07/28 09:12:18;;;;;;;10.13;4.87;;;;;;;35.90;32.10;99707.23;126537;1090;103143;-78
2021/07/28 09:15:08;;;;;;;5.73;4.90;;;;;;;36.24;31.98;99696.78;126616;1090;103101;-78
2021/07/28 09:18:03;;;;;;;7.20;5.03;;;;;;;36.23;31.64;99705.98;126666;1090;102957;-79
2021/07/28 09:20:51;;;;;;;8.10;5.17;;;;;;;36.28;31.06;99696.13;126475;1090;112941;-79
2021/07/28 09:23:40;;;;;;;6.10;5.03;;;;;;;36.71;30.84;99696.98;126631;1090;102851;-78
2021/07/28 09:26:34;;;;;;;11.43;5.03;;;;;;;37.29;29.86;99701.71;126465;1090;114126;-78
2021/07/28 09:29:28;;;;;;;9.13;5.10;;;;;;;37.72;29.26;99694.03;126792;1089;102861;-79
2021/07/28 09:32:16;;;;;;;7.73;5.10;;;;;;;37.99;26.96;99696.19;126547;1090;114022;-79
2021/07/28 09:35:04;;;;;;;6.73;4.50;;;;;;;38.06;28.48;99689.56;126641;1090;102980;-79
2021/07/28 09:37:52;;;;;;;7.10;4.90;;;;;;;38.28;28.05;99687.01;126525;1089;113960;-79
2021/07/28 09:40:40;;;;;;;8.20;4.35;;;;;;;38.38;28.11;99679.01;126611;1089;102945;-78
2021/07/28 09:43:27;;;;;;;6.33;4.30;;;;;;;38.20;27.83;99683.83;126486;1090;114287;-78
2021/07/28 09:46:31;;;;;;;7.20;4.97;;;;;;;38.27;27.94;99674.46;126634;1089;102906;-78
2021/07/28 09:49:20;;;;;;;7.83;4.60;;;;;;;38.52;28.16;99679.53;126682;1089;113961;-79
2021/07/28 09:52:26;;;;;;;7.00;5.57;;;;;;;38.43;26.87;99693.82;126633;1090;102898;-79
2021/07/28 09:55:28;;;;;;;;;;;;;;;37.70;26.07;99684.39;126487;1089;114148;-79
2021/07/28 09:58:17;;;;;;;7.73;4.00;;;;;;;37.35;26.70;99684.47;126652;1088;103012;-79
2021/07/28 10:01:04;;;;;;;4.50;4.00;;;;;;;37.26;26.98;99674.97;126547;1090;114292;-79
2021/07/28 10:03:56;;;;;;;4.50;4.10;;;;;;;37.56;27.24;99672.97;126604;1089;103075;-79
2021/07/28 10:06:52;;;;;;;7.63;4.17;;;;;;;38.00;26.70;99670.63;126676;1090;103008;-78
2021/07/28 10:09:46;;;;;;;6.03;4.30;;;;;;;37.97;26.42;99666.49;126598;1090;103007;-78
2021/07/28 10:12:34;;;;;;;5.73;4.10;;;;;;;37.92;26.42;99671.02;126703;1090;103127;-78
2021/07/28 10:15:22;;;;;;;8.67;4.77;;;;;;;37.84;25.98;99668.66;126514;1088;115060;-78
2021/07/28 10:18:10;;;;;;;5.50;4.30;;;;;;;37.53;26.22;99672.63;126693;1090;102852;-78
2021/07/28 10:20:58;;;;;;;5.27;4.00;;;;;;;37.12;27.10;99661.60;126546;1089;113971;-78
2021/07/28 10:23:47;;;;;;;7.97;4.83;;;;;;;37.33;27.39;99662.09;126529;1090;102963;-78
2021/07/28 10:26:41;;;;;;;7.13;4.27;;;;;;;37.63;26.09;99679.09;126535;1088;114345;-78
2021/07/28 10:29:31;;;;;;;4.30;3.90;;;;;;;37.26;26.55;99659.51;126607;1089;102852;-78
2021/07/28 10:32:32;;;;;;;8.90;4.10;;;;;;;36.91;27.16;99659.47;126546;1090;114122;-78
2021/07/28 10:35:23;;;;;;;6.27;4.20;;;;;;;37.04;26.70;99659.25;126703;1089;102965;-79
2021/07/28 10:38:20;;;;;;;4.73;4.30;;;;;;;37.11;27.15;99659.95;126544;1090;114091;-79
2021/07/28 10:41:09;;;;;;;5.60;4.50;;;;;;;37.10;26.98;99661.02;126607;1090;103071;-78
2021/07/28 10:44:13;;;;;;;4.90;4.07;;;;;;;36.95;27.06;99659.82;126519;1090;114139;-78
2021/07/28 10:47:11;;;;;;;5.53;4.43;;;;;;;36.86;27.82;99649.31;126579;1090;102913;-78
2021/07/28 10:50:01;;;;;;;5.07;4.13;;;;;;;37.08;27.33;99654.98;126607;1090;114108;-78
2021/07/28 10:52:50;;;;;;;9.10;4.93;;;;;;;37.27;27.00;99653.00;126618;1089;103103;-78
2021/07/28 10:55:40;;;;;;;10.50;4.97;;;;;;;36.87;26.14;99652.86;126506;1088;114352;-78
2021/07/28 10:58:28;;;;;;;6.63;5.10;;;;;;;36.16;26.74;99657.22;126642;1088;102872;-78
2021/07/28 11:01:16;;;;;;;5.10;4.60;;;;;;;35.56;27.44;99650.88;126460;1090;114063;-78
2021/07/28 11:04:24;;;;;;;10.77;5.33;;;;;;;35.17;27.89;99657.48;126656;1088;104094;-79
2021/07/28 11:07:11;;;;;;;7.37;4.93;;;;;;;35.18;28.92;99641.00;126592;1089;102695;-78
2021/07/28 11:10:04;;;;;;;6.70;5.07;;;;;;;34.87;28.47;99646.52;126660;1089;102953;-78
2021/07/28 11:12:52;;;;;;;5.07;4.57;;;;;;;34.64;28.96;99633.53;126644;1090;102988;-78
2021/07/28 11:15:50;;;;;;;5.33;4.70;;;;;;;34.52;29.21;99639.67;126526;1090;112881;-78
2021/07/28 11:18:39;;;;;;;5.87;4.33;;;;;;;34.47;29.44;99636.80;126616;1089;102856;-78
2021/07/28 11:21:29;;;;;;;8.20;4.73;;;;;;;34.36;29.08;99636.67;126626;1089;113911;-78
2021/07/28 11:24:17;;;;;;;5.77;4.20;;;;;;;34.51;29.48;99642.61;126798;1090;102887;-78
2021/07/28 11:27:11;;;;;;;9.77;4.97;;;;;;;34.30;28.72;99641.05;126520;1090;113107;-78
2021/07/28 11:30:15;;;;;;;12.03;4.97;;;;;;;34.35;29.97;99637.69;126587;1089;103047;-79
2021/07/28 11:33:16;;;;;;;6.13;4.70;;;;;;;34.35;29.58;99633.13;126543;1089;114175;-79
2021/07/28 11:36:06;;;;;;;9.33;4.70;;;;;;;34.28;29.56;99629.59;126587;1089;103002;-79
2021/07/28 11:38:54;;;;;;;7.97;4.80;;;;;;;34.46;29.36;99628.88;126543;1090;114692;-79
2021/07/28 11:41:45;;;;;;;5.30;4.80;;;;;;;34.44;29.11;99625.56;126663;1090;103088;-79
2021/07/28 11:44:41;;;;;;;5.67;5.07;;;;;;;34.44;28.98;99636.39;126545;1089;113025;-79
2021/07/28 11:47:28;;;;;;;7.13;4.10;;;;;;;34.25;29.24;99628.15;126633;1090;102850;-79
2021/07/28 11:50:16;;;;;;;6.00;5.17;;;;;;;33.87;29.19;99630.03;126517;1089;114251;-79
2021/07/28 11:53:04;;;;;;;7.47;4.47;;;;;;;33.64;30.23;99612.42;126570;1090;102978;-79
2021/07/28 11:55:54;;;;;;;7.15;5.25;;;;;;;33.61;29.77;99626.38;126675;1089;114340;-79
2021/07/28 11:58:42;;;;;;;6.87;4.90;;;;;;;33.55;29.99;99613.69;126682;1090;103033;-79
2021/07/28 12:01:32;;;;;;;4.70;4.30;;;;;;;33.57;30.64;99602.66;126676;1090;103329;-79
2021/07/28 12:04:32;;;;;;;9.30;5.20;;;;;;;33.60;30.04;99599.55;126452;1090;114232;-79
2021/07/28 12:07:27;;;;;;;7.37;4.70;;;;;;;33.45;30.02;99610.63;126671;1090;102982;-79
2021/07/28 12:10:25;;;;;;;7.47;5.20;;;;;;;33.37;30.87;99602.73;126678;1090;112701;-79
2021/07/28 12:13:20;;;;;;;6.57;5.20;;;;;;;33.21;30.76;99619.36;126657;1090;102954;-79
2021/07/28 12:16:08;;;;;;;6.50;5.67;;;;;;;33.02;31.09;99599.45;126666;1090;114083;-79
2021/07/28 12:19:05;;;;;;;5.20;4.60;;;;;;;32.70;31.65;99596.56;126678;1088;103038;-79
2021/07/28 12:22:06;;;;;;;5.93;4.77;;;;;;;32.55;31.57;99587.01;126537;1089;114165;-79
2021/07/28 12:25:16;;;;;;;7.63;4.97;;;;;;;32.53;31.37;99605.28;126732;1090;103309;-78
2021/07/28 12:28:05;;;;;;;8.83;4.83;;;;;;;32.28;31.14;99589.67;126570;1089;114017;-78
2021/07/28 12:30:58;;;;;;;5.30;4.63;;;;;;;32.17;31.91;99584.87;126748;1090;104602;-78
2021/07/28 12:33:45;;;;;;;6.57;5.50;;;;;;;32.13;31.78;99584.42;126474;1089;113191;-79
2021/07/28 12:36:33;;;;;;;9.87;5.20;;;;;;;32.06;32.63;99583.59;126632;1088;103007;-79
2021/07/28 12:39:21;;;;;;;5.97;5.37;;;;;;;32.03;33.01;99572.38;126512;1090;113948;-80
2021/07/28 12:42:08;;;;;;;7.17;5.20;;;;;;;32.11;33.03;99575.70;126746;1090;102906;-80
2021/07/28 12:44:56;;;;;;;7.10;4.90;;;;;;;32.26;33.24;99589.02;126695;1089;114118;-80
2021/07/28 12:47:44;;;;;;;7.97;5.87;;;;;;;32.18;32.61;99570.34;126796;1089;103038;-79
2021/07/28 12:50:34;;;;;;;7.13;5.70;;;;;;;32.07;32.83;99579.02;126515;1089;114213;-79
2021/07/28 12:53:26;;;;;;;8.47;6.00;;;;;;;32.00;32.75;99570.09;126613;1089;103010;-79
2021/07/28 12:56:14;;;;;;;8.80;5.80;;;;;;;31.77;33.07;99568.56;126713;1090;114089;-79